Time;durP1;ratioP1;P1;durP2;ratioP2;P2;SDS_P1;SDS_P2;PMS_P1;PMS_P2;Temp;Humidity;BMP_temperature;BMP_pressure;BME280_temperature;BME280_humidity;BME280_pressure;Samples;Min_cycle;Max_cycle;Signal;HPM_P1;HPM_P2
2022/11/01 00:00:32;;;;;;;;;;;22.50;99.90;;;;;;4220218;28;20328;-71
2022/11/01 00:02:43;;;;;;;;;;;22.60;99.90;;;;;;4209770;28;19932;-71
2022/11/01 00:04:49;;;;;;;;;;;22.80;99.90;;;;;;4213253;28;19951;-71
2022/11/01 00:06:55;;;;;;;;;;;22.80;99.90;;;;;;4212435;28;20463;-70
2022/11/01 00:08:59;;;;;;;;;;;22.70;99.90;;;;;;4214332;28;20590;-70
2022/11/01 00:11:17;;;;;;;;;;;22.60;99.90;;;;;;4213141;28;20390;-69
2022/11/01 00:13:26;;;;;;;;;;;23.00;99.90;;;;;;4212656;28;20414;-68
2022/11/01 00:15:34;;;;;;;;;;;22.80;99.90;;;;;;4211118;28;19927;-70
2022/11/01 00:17:41;;;;;;;;;;;22.90;99.90;;;;;;4213367;28;19928;-69
2022/11/01 00:19:49;;;;;;;;;;;22.90;99.90;;;;;;4212818;28;19924;-72
2022/11/01 00:21:54;;;;;;;;;;;23.00;99.90;;;;;;4213741;28;19935;-72
2022/11/01 00:24:02;;;;;;;;;;;23.20;99.90;;;;;;4216266;28;20305;-72
2022/11/01 00:26:16;;;;;;;;;;;23.20;99.90;;;;;;4213225;28;19942;-72
2022/11/01 00:28:21;;;;;;;;;;;23.30;99.90;;;;;;4212462;28;19928;-71
2022/11/01 00:30:26;;;;;;;;;;;23.30;99.90;;;;;;4212650;28;20423;-71
2022/11/01 00:32:30;;;;;;;;;;;23.40;99.90;;;;;;4211970;28;19931;-71
2022/11/01 00:34:37;;;;;;;;;;;23.50;99.90;;;;;;4212710;28;19982;-71
2022/11/01 00:36:44;;;;;;;;;;;23.40;99.90;;;;;;4213276;28;19967;-72
2022/11/01 00:38:51;;;;;;;;;;;23.50;99.90;;;;;;4213124;28;19932;-72
2022/11/01 00:40:56;;;;;;;;;;;23.60;99.90;;;;;;4212235;28;19931;-72
2022/11/01 00:43:20;;;;;;;;;;;23.60;99.90;;;;;;4211609;28;19924;-70
2022/11/01 00:45:25;;;;;;;;;;;23.60;99.90;;;;;;4210727;28;19938;-70
2022/11/01 00:47:31;;;;;;;;;;;23.70;99.90;;;;;;4212150;28;20366;-69
2022/11/01 00:49:39;;;;;;;;;;;23.50;99.90;;;;;;4209677;28;19928;-70
2022/11/01 00:51:45;;;;;;;;;;;23.60;99.90;;;;;;4211320;28;19924;-70
2022/11/01 00:53:49;;;;;;;;;;;23.80;99.90;;;;;;4223072;28;19957;-71
2022/11/01 00:55:58;;;;;;;;;;;23.80;99.90;;;;;;4222471;28;20421;-72
2022/11/01 00:58:03;;;;;;;;;;;24.00;99.90;;;;;;4212143;28;19924;-67
2022/11/01 01:00:10;;;;;;;;;;;24.20;99.90;;;;;;4211301;28;20038;-70
2022/11/01 01:02:20;;;;;;;;;;;24.20;99.90;;;;;;4208407;28;20828;-72
2022/11/01 01:04:28;;;;;;;;;;;24.40;99.90;;;;;;4213296;28;19928;-79
2022/11/01 01:06:37;;;;;;;;;;;24.50;99.90;;;;;;4212210;28;20456;-72
2022/11/01 01:08:52;;;;;;;;;;;24.50;99.90;;;;;;4210415;28;19924;-70
2022/11/01 01:11:02;;;;;;;;;;;24.60;99.90;;;;;;4212038;28;19932;-70
2022/11/01 01:13:06;;;;;;;;;;;24.70;99.90;;;;;;4224788;28;20670;-68
2022/11/01 01:15:21;;;;;;;;;;;24.70;99.90;;;;;;4229018;28;19985;-67
2022/11/01 01:17:39;;;;;;;;;;;24.50;98.90;;;;;;4230411;28;19931;-68
2022/11/01 01:19:43;;;;;;;;;;;24.60;98.50;;;;;;4229989;27;19935;-68
2022/11/01 01:21:52;;;;;;;;;;;24.80;98.70;;;;;;4216424;28;20005;-70
2022/11/01 01:23:59;;;;;;;;;;;24.90;97.80;;;;;;4225134;28;19924;-69
2022/11/01 01:26:07;;;;;;;;;;;24.90;96.50;;;;;;4227579;28;20343;-71
2022/11/01 01:28:13;;;;;;;;;;;25.00;96.20;;;;;;4228555;28;19934;-69
2022/11/01 01:30:24;;;;;;;;;;;25.00;95.20;;;;;;4221721;28;19940;-69
2022/11/01 01:32:34;;;;;;;;;;;24.90;95.40;;;;;;4195265;28;20398;-69
2022/11/01 01:34:40;;;;;;;;;;;25.00;94.80;;;;;;4195491;28;20399;-71
2022/11/01 01:36:47;;;;;;;;;;;25.10;95.30;;;;;;4195983;28;19936;-72
2022/11/01 01:38:53;;;;;;;;;;;25.10;94.10;;;;;;4196396;28;20426;-69
2022/11/01 01:43:42;;;;;;;;;;;25.30;94.60;;;;;;4213539;28;19924;-71
2022/11/01 01:45:52;;;;;;;;;;;25.30;94.20;;;;;;4204530;28;19935;-70
2022/11/01 01:48:13;;;;;;;;;;;25.40;93.60;;;;;;4211524;28;19931;-69
2022/11/01 01:50:30;;;;;;;;;;;25.30;92.80;;;;;;4211785;28;20026;-69
2022/11/01 01:52:46;;;;;;;;;;;25.30;92.60;;;;;;4210209;28;19928;-69
2022/11/01 01:54:53;;;;;;;;;;;25.30;92.50;;;;;;4207397;28;19968;-70
2022/11/01 01:56:59;;;;;;;;;;;25.30;92.70;;;;;;4222072;28;19927;-70
2022/11/01 01:59:10;;;;;;;;;;;25.40;92.40;;;;;;4212422;28;20051;-69
2022/11/01 02:01:34;;;;;;;;;;;25.40;92.20;;;;;;4196109;28;19928;-69
2022/11/01 02:03:43;;;;;;;;;;;25.40;92.40;;;;;;4210378;28;19928;-69
2022/11/01 02:06:12;;;;;;;;;;;25.50;92.00;;;;;;4210819;28;20282;-69
2022/11/01 02:08:28;;;;;;;;;;;25.50;92.00;;;;;;4210468;28;19924;-69
2022/11/01 02:10:34;;;;;;;;;;;25.50;91.90;;;;;;4212071;28;19966;-68
2022/11/01 02:12:51;;;;;;;;;;;25.60;91.80;;;;;;4240584;27;19988;-69
2022/11/01 02:15:01;;;;;;;;;;;25.70;92.20;;;;;;4211726;28;19924;-70
2022/11/01 02:17:18;;;;;;;;;;;25.60;91.40;;;;;;4193475;28;19939;-70
2022/11/01 02:19:27;;;;;;;;;;;25.70;91.60;;;;;;4195385;28;19929;-70
2022/11/01 02:21:48;;;;;;;;;;;25.70;91.20;;;;;;4195349;28;20354;-70
2022/11/01 02:24:11;;;;;;;;;;;25.80;91.40;;;;;;4218153;28;19970;-70
2022/11/01 02:26:20;;;;;;;;;;;25.80;91.30;;;;;;4226761;28;20328;-70
2022/11/01 02:28:47;;;;;;;;;;;25.80;90.90;;;;;;4228905;28;20402;-70
2022/11/01 02:31:03;;;;;;;;;;;25.80;91.30;;;;;;4218949;28;20313;-71
2022/11/01 02:33:22;;;;;;;;;;;25.80;91.90;;;;;;4211095;28;19924;-70
2022/11/01 02:35:41;;;;;;;;;;;26.00;91.60;;;;;;4240688;27;19923;-69
2022/11/01 02:38:00;;;;;;;;;;;26.00;91.30;;;;;;4212444;28;20316;-69
2022/11/01 02:40:10;;;;;;;;;;;26.00;91.40;;;;;;4215204;28;20001;-69
2022/11/01 02:42:24;;;;;;;;;;;26.10;91.70;;;;;;4244299;27;20010;-69
2022/11/01 02:44:34;;;;;;;;;;;26.10;91.00;;;;;;4214956;28;20361;-69
2022/11/01 02:49:12;;;;;;;;;;;26.20;90.80;;;;;;4232372;28;20348;-70
2022/11/01 02:51:20;;;;;;;;;;;26.30;90.80;;;;;;4231449;28;19927;-68
2022/11/01 02:53:26;;;;;;;;;;;26.40;90.30;;;;;;4223937;28;19928;-68
2022/11/01 02:55:39;;;;;;;;;;;26.30;90.50;;;;;;4196611;28;19989;-68
2022/11/01 02:57:45;;;;;;;;;;;26.40;90.50;;;;;;4212618;28;20404;-68
2022/11/01 02:59:50;;;;;;;;;;;26.40;90.00;;;;;;4182536;28;19960;-67
2022/11/01 03:02:00;;;;;;;;;;;26.20;89.40;;;;;;4195087;28;19924;-68
2022/11/01 03:04:07;;;;;;;;;;;26.20;90.00;;;;;;4178357;28;19924;-68
2022/11/01 03:06:18;;;;;;;;;;;26.30;90.10;;;;;;4172764;28;20032;-68
2022/11/01 03:08:36;;;;;;;;;;;26.40;90.20;;;;;;4179620;28;19925;-68
2022/11/01 03:11:01;;;;;;;;;;;26.60;90.40;;;;;;4193504;28;20430;-67
2022/11/01 03:13:21;;;;;;;;;;;26.80;90.30;;;;;;4194329;28;19931;-68
2022/11/01 03:15:32;;;;;;;;;;;26.90;89.20;;;;;;4193296;28;20283;-68
2022/11/01 03:17:43;;;;;;;;;;;26.90;88.80;;;;;;4177594;28;19961;-68
2022/11/01 03:19:53;;;;;;;;;;;26.90;88.10;;;;;;4178757;28;20347;-69
2022/11/01 03:22:10;;;;;;;;;;;26.90;88.10;;;;;;4194982;28;19925;-68
2022/11/01 03:24:22;;;;;;;;;;;26.90;87.60;;;;;;4195412;28;19932;-68
2022/11/01 03:26:36;;;;;;;;;;;26.80;86.20;;;;;;4176961;28;19932;-68
2022/11/01 03:28:47;;;;;;;;;;;26.80;86.60;;;;;;4233889;27;20386;-68
2022/11/01 03:31:13;;;;;;;;;;;26.90;86.70;;;;;;4197385;28;20354;-68
2022/11/01 03:33:23;;;;;;;;;;;27.00;86.70;;;;;;4196187;28;19929;-68
2022/11/01 03:35:33;;;;;;;;;;;27.30;85.80;;;;;;4196542;28;20359;-68
2022/11/01 03:37:41;;;;;;;;;;;27.20;85.60;;;;;;4209514;28;20310;-68
2022/11/01 03:39:50;;;;;;;;;;;27.30;85.10;;;;;;4246463;27;19923;-68
2022/11/01 03:41:59;;;;;;;;;;;27.30;85.70;;;;;;4245498;27;19930;-68
2022/11/01 03:44:04;;;;;;;;;;;27.30;85.70;;;;;;4214372;28;19970;-68
2022/11/01 03:46:10;;;;;;;;;;;27.40;84.90;;;;;;4212827;28;20007;-69
2022/11/01 03:48:22;;;;;;;;;;;27.50;85.00;;;;;;4194637;28;20423;-70
2022/11/01 03:50:30;;;;;;;;;;;27.60;84.70;;;;;;4194509;28;19925;-70
2022/11/01 03:52:44;;;;;;;;;;;27.50;83.40;;;;;;4197420;28;19932;-69
2022/11/01 03:54:51;;;;;;;;;;;27.60;83.90;;;;;;4212624;28;19935;-69
2022/11/01 03:56:57;;;;;;;;;;;27.60;81.80;;;;;;4204251;28;19924;-69
2022/11/01 03:59:06;;;;;;;;;;;27.70;82.70;;;;;;4212167;28;19985;-69
2022/11/01 04:01:14;;;;;;;;;;;27.80;83.00;;;;;;4181708;28;20027;-69
2022/11/01 04:03:21;;;;;;;;;;;27.70;80.80;;;;;;4194726;28;20433;-69
2022/11/01 04:05:28;;;;;;;;;;;27.70;81.40;;;;;;4195154;28;19935;-69
2022/11/01 04:07:37;;;;;;;;;;;27.70;81.80;;;;;;4186870;28;20295;-69
2022/11/01 04:09:44;;;;;;;;;;;27.80;80.90;;;;;;4194779;28;19924;-69
2022/11/01 04:11:57;;;;;;;;;;;27.70;80.10;;;;;;4177465;28;19974;-69
2022/11/01 04:21:28;;;;;;;;;;;27.70;80.30;;;;;;4213534;28;19958;-69
2022/11/01 04:23:40;;;;;;;;;;;27.80;80.50;;;;;;4221563;28;19923;-69
2022/11/01 04:25:46;;;;;;;;;;;27.80;79.90;;;;;;4229494;28;20419;-69
2022/11/01 04:27:58;;;;;;;;;;;27.80;80.20;;;;;;4230508;28;19924;-69
2022/11/01 04:30:18;;;;;;;;;;;27.80;79.80;;;;;;4220693;28;19933;-69
2022/11/01 04:32:25;;;;;;;;;;;28.00;80.40;;;;;;4237908;27;19927;-69
2022/11/01 04:36:51;;;;;;;;;;;28.30;79.20;;;;;;4197338;28;19924;-69
2022/11/01 04:39:00;;;;;;;;;;;28.30;78.90;;;;;;4197387;28;19932;-69
2022/11/01 04:41:06;;;;;;;;;;;28.10;78.60;;;;;;4201027;28;19928;-69
2022/11/01 04:43:13;;;;;;;;;;;28.10;78.70;;;;;;4213377;28;19928;-69
2022/11/01 04:45:19;;;;;;;;;;;28.20;78.20;;;;;;4212242;28;19928;-69
2022/11/01 04:47:26;;;;;;;;;;;28.20;78.10;;;;;;4213108;28;19935;-69
2022/11/01 04:49:32;;;;;;;;;;;28.20;78.30;;;;;;4212929;28;19924;-69
2022/11/01 04:51:39;;;;;;;;;;;28.20;78.60;;;;;;4212292;28;19955;-69
2022/11/01 04:53:47;;;;;;;;;;;28.30;78.10;;;;;;4222438;28;20297;-69
2022/11/01 04:55:52;;;;;;;;;;;28.30;78.20;;;;;;4215103;28;19928;-69
2022/11/01 04:57:59;;;;;;;;;;;28.30;77.60;;;;;;4228346;28;20397;-69
2022/11/01 05:00:11;;;;;;;;;;;28.40;78.90;;;;;;4224153;28;19959;-69
2022/11/01 05:02:19;;;;;;;;;;;28.50;77.20;;;;;;4212551;28;20349;-69
2022/11/01 05:04:33;;;;;;;;;;;28.50;76.70;;;;;;4209394;28;19928;-69
2022/11/01 05:06:47;;;;;;;;;;;28.40;76.40;;;;;;4210874;28;19928;-69
2022/11/01 05:09:02;;;;;;;;;;;28.30;75.30;;;;;;4210083;28;19950;-70
2022/11/01 05:11:07;;;;;;;;;;;28.40;76.90;;;;;;4212051;28;19924;-71
2022/11/01 05:13:15;;;;;;;;;;;28.60;77.30;;;;;;4212870;28;19929;-71
2022/11/01 05:15:20;;;;;;;;;;;28.60;75.60;;;;;;4221094;28;19923;-72
2022/11/01 05:17:28;;;;;;;;;;;28.60;76.70;;;;;;4211958;28;19932;-73
2022/11/01 05:19:40;;;;;;;;;;;28.90;77.80;;;;;;4211178;28;20383;-70
2022/11/01 05:21:46;;;;;;;;;;;28.90;76.10;;;;;;4193604;28;19995;-70
2022/11/01 05:23:53;;;;;;;;;;;28.90;75.30;;;;;;4211212;28;19934;-71
2022/11/01 05:26:01;;;;;;;;;;;29.00;75.10;;;;;;4210688;28;19931;-72
2022/11/01 05:28:08;;;;;;;;;;;28.90;75.10;;;;;;4212482;28;20413;-72
2022/11/01 05:30:13;;;;;;;;;;;28.90;74.40;;;;;;4210752;28;20005;-72
2022/11/01 05:32:28;;;;;;;;;;;28.70;74.50;;;;;;4212094;28;20433;-72
2022/11/01 05:34:35;;;;;;;;;;;28.60;75.10;;;;;;4209597;28;19924;-70
2022/11/01 05:36:40;;;;;;;;;;;28.80;75.50;;;;;;4210783;28;19928;-70
2022/11/01 05:38:57;;;;;;;;;;;28.80;74.60;;;;;;4212070;28;19931;-69
2022/11/01 05:41:06;;;;;;;;;;;28.90;74.30;;;;;;4211154;28;19931;-68
2022/11/01 05:43:11;;;;;;;;;;;29.00;74.40;;;;;;4234349;27;19927;-69
2022/11/01 05:45:21;;;;;;;;;;;29.10;75.10;;;;;;4208285;28;19993;-69
2022/11/01 05:47:31;;;;;;;;;;;29.10;73.50;;;;;;4234335;27;19927;-69
2022/11/01 05:49:37;;;;;;;;;;;29.10;74.20;;;;;;4234772;27;19927;-69
2022/11/01 05:51:45;;;;;;;;;;;29.10;74.50;;;;;;4210360;28;19953;-68
2022/11/01 05:53:50;;;;;;;;;;;29.10;74.60;;;;;;4213756;28;20397;-71
2022/11/01 05:55:55;;;;;;;;;;;29.10;74.30;;;;;;4210963;28;20325;-70
2022/11/01 05:58:03;;;;;;;;;;;29.10;74.60;;;;;;4212689;28;20381;-70
2022/11/01 06:00:07;;;;;;;;;;;29.20;73.70;;;;;;4209408;28;19931;-70
2022/11/01 06:02:16;;;;;;;;;;;29.20;74.50;;;;;;4210532;28;19928;-70
2022/11/01 06:04:28;;;;;;;;;;;29.30;73.80;;;;;;4209000;28;20397;-70
2022/11/01 06:06:32;;;;;;;;;;;29.10;73.30;;;;;;4210426;28;20350;-69
2022/11/01 06:08:38;;;;;;;;;;;29.20;73.30;;;;;;4210766;28;19975;-70
2022/11/01 06:10:45;;;;;;;;;;;29.20;73.10;;;;;;4211705;28;19936;-72
2022/11/01 06:12:49;;;;;;;;;;;29.20;72.40;;;;;;4212504;28;19939;-72
2022/11/01 06:14:54;;;;;;;;;;;29.10;71.90;;;;;;4209754;28;19928;-72
2022/11/01 06:17:11;;;;;;;;;;;29.20;73.00;;;;;;4210454;28;20302;-72
2022/11/01 06:19:15;;;;;;;;;;;29.10;72.60;;;;;;4211274;28;19928;-72
2022/11/01 06:21:21;;;;;;;;;;;29.10;72.80;;;;;;4211155;28;19936;-73
2022/11/01 06:23:35;;;;;;;;;;;29.20;72.20;;;;;;4212385;28;19935;-72
2022/11/01 06:25:39;;;;;;;;;;;29.20;73.50;;;;;;4210930;28;19928;-72
2022/11/01 06:27:45;;;;;;;;;;;29.10;71.90;;;;;;4210820;28;19954;-72
2022/11/01 06:29:54;;;;;;;;;;;29.30;72.10;;;;;;4209938;28;19928;-73
2022/11/01 06:31:59;;;;;;;;;;;29.40;71.40;;;;;;4211658;28;20023;-73
2022/11/01 06:34:04;;;;;;;;;;;29.30;71.50;;;;;;4234470;28;20018;-73
2022/11/01 06:36:12;;;;;;;;;;;29.30;72.20;;;;;;4235319;27;20023;-73
2022/11/01 06:38:16;;;;;;;;;;;29.50;72.20;;;;;;4211672;28;19928;-72
2022/11/01 06:40:22;;;;;;;;;;;29.50;71.70;;;;;;4208802;28;19932;-72
2022/11/01 06:42:31;;;;;;;;;;;29.60;72.30;;;;;;4211785;28;20367;-73
2022/11/01 06:44:35;;;;;;;;;;;29.70;71.40;;;;;;4210800;28;20371;-73
2022/11/01 06:46:39;;;;;;;;;;;29.80;71.70;;;;;;4234722;27;19927;-74
2022/11/01 06:48:47;;;;;;;;;;;29.90;70.80;;;;;;4209496;28;20305;-73
2022/11/01 06:50:54;;;;;;;;;;;29.70;69.80;;;;;;4211911;28;19924;-73
2022/11/01 06:52:59;;;;;;;;;;;29.60;69.90;;;;;;4215950;28;19924;-72
2022/11/01 06:55:07;;;;;;;;;;;29.60;70.60;;;;;;4228871;28;19953;-73
2022/11/01 06:57:13;;;;;;;;;;;29.70;70.20;;;;;;4211266;28;20301;-71
2022/11/01 06:59:17;;;;;;;;;;;29.60;70.70;;;;;;4210379;28;19932;-71
2022/11/01 07:01:29;;;;;;;;;;;29.50;70.40;;;;;;4208639;28;20418;-72
2022/11/01 07:03:34;;;;;;;;;;;29.60;70.90;;;;;;4211415;28;19974;-71
2022/11/01 07:05:39;;;;;;;;;;;29.50;70.80;;;;;;4210504;28;20323;-71
2022/11/01 07:07:48;;;;;;;;;;;29.60;71.20;;;;;;4208890;28;19956;-71
2022/11/01 07:09:53;;;;;;;;;;;29.50;69.50;;;;;;4209353;28;19939;-71
2022/11/01 07:12:03;;;;;;;;;;;29.40;69.50;;;;;;4210508;28;19932;-71
2022/11/01 07:14:08;;;;;;;;;;;29.50;69.50;;;;;;4208849;28;19946;-71
2022/11/01 07:16:13;;;;;;;;;;;29.50;69.90;;;;;;4234654;28;19973;-72
2022/11/01 07:18:19;;;;;;;;;;;29.50;69.70;;;;;;4210699;28;19928;-71
2022/11/01 07:20:30;;;;;;;;;;;29.50;69.60;;;;;;4211653;28;19935;-72
2022/11/01 07:22:35;;;;;;;;;;;29.50;69.70;;;;;;4211530;28;19935;-72
2022/11/01 07:24:40;;;;;;;;;;;29.40;70.30;;;;;;4229124;28;20003;-72
2022/11/01 07:26:47;;;;;;;;;;;29.50;70.50;;;;;;4230901;28;20362;-72
2022/11/01 07:28:51;;;;;;;;;;;29.60;69.20;;;;;;4223337;28;19928;-73
2022/11/01 07:30:56;;;;;;;;;;;29.50;69.80;;;;;;4214857;28;19932;-73
2022/11/01 07:33:03;;;;;;;;;;;29.50;69.50;;;;;;4214696;28;20028;-73
2022/11/01 07:35:10;;;;;;;;;;;29.50;69.80;;;;;;4214650;28;19963;-72
2022/11/01 07:37:15;;;;;;;;;;;29.60;70.30;;;;;;4219346;28;19947;-73
2022/11/01 07:39:25;;;;;;;;;;;29.60;68.40;;;;;;4230046;28;19932;-72
2022/11/01 07:41:29;;;;;;;;;;;29.60;69.00;;;;;;4227323;28;19927;-72
2022/11/01 07:43:34;;;;;;;;;;;29.50;69.50;;;;;;4246387;27;19927;-72
2022/11/01 07:45:40;;;;;;;;;;;29.40;70.70;;;;;;4214966;28;19928;-71
2022/11/01 07:47:45;;;;;;;;;;;29.60;70.00;;;;;;4214298;28;19981;-71
2022/11/01 07:49:49;;;;;;;;;;;29.60;70.80;;;;;;4222530;28;19928;-73
2022/11/01 07:51:55;;;;;;;;;;;29.70;69.90;;;;;;4230495;28;19927;-72
2022/11/01 07:54:05;;;;;;;;;;;29.70;69.40;;;;;;4215892;28;19928;-72
2022/11/01 07:56:10;;;;;;;;;;;29.70;69.80;;;;;;4213060;28;20362;-72
2022/11/01 07:58:16;;;;;;;;;;;29.70;71.00;;;;;;4214105;28;19928;-71
2022/11/01 08:00:23;;;;;;;;;;;29.70;70.90;;;;;;4213065;28;19930;-71
2022/11/01 08:02:36;;;;;;;;;;;29.80;69.80;;;;;;4213409;28;20344;-71
2022/11/01 08:04:46;;;;;;;;;;;29.70;69.00;;;;;;4212651;28;20426;-72
2022/11/01 08:06:58;;;;;;;;;;;29.60;69.50;;;;;;4212209;28;20354;-71
2022/11/01 08:09:05;;;;;;;;;;;29.60;68.40;;;;;;4213648;28;20016;-71
2022/11/01 08:11:13;;;;;;;;;;;29.60;70.00;;;;;;4214364;28;20393;-71
2022/11/01 08:13:19;;;;;;;;;;;29.60;69.30;;;;;;4214001;28;19973;-71
2022/11/01 08:15:27;;;;;;;;;;;29.70;69.80;;;;;;4213918;28;19955;-70
2022/11/01 08:17:38;;;;;;;;;;;29.70;70.50;;;;;;4218061;28;19955;-71
2022/11/01 08:19:44;;;;;;;;;;;29.70;69.40;;;;;;4214367;28;19959;-71
2022/11/01 08:21:50;;;;;;;;;;;29.70;70.40;;;;;;4213731;28;19936;-72
2022/11/01 08:23:56;;;;;;;;;;;29.70;70.30;;;;;;4218080;28;19935;-70
2022/11/01 08:26:21;;;;;;;;;;;29.70;69.30;;;;;;4175581;28;20039;-71
2022/11/01 08:28:29;;;;;;;;;;;29.70;68.70;;;;;;4193486;28;20411;-70
2022/11/01 08:30:37;;;;;;;;;;;29.70;69.50;;;;;;4194255;28;19928;-70
2022/11/01 08:32:44;;;;;;;;;;;29.70;69.20;;;;;;4194249;28;20046;-70
2022/11/01 08:34:53;;;;;;;;;;;29.70;69.60;;;;;;4210274;28;20390;-71
2022/11/01 08:37:02;;;;;;;;;;;29.80;69.30;;;;;;4193826;28;19932;-70
2022/11/01 08:39:12;;;;;;;;;;;29.80;69.20;;;;;;4194670;28;19925;-71
2022/11/01 08:41:16;;;;;;;;;;;29.80;69.60;;;;;;4193839;28;19958;-71
2022/11/01 08:43:25;;;;;;;;;;;29.70;68.90;;;;;;4176700;28;20377;-71
2022/11/01 08:45:29;;;;;;;;;;;29.70;69.20;;;;;;4193808;28;19928;-71
2022/11/01 08:47:34;;;;;;;;;;;29.70;69.10;;;;;;4193872;28;19928;-70
2022/11/01 08:49:42;;;;;;;;;;;29.60;68.30;;;;;;4194077;28;20015;-71
2022/11/01 08:51:47;;;;;;;;;;;29.70;67.90;;;;;;4209853;28;19935;-71
2022/11/01 08:53:55;;;;;;;;;;;29.60;68.50;;;;;;4212068;28;19936;-71
2022/11/01 08:56:07;;;;;;;;;;;29.60;69.20;;;;;;3265610;28;10000996;-70
2022/11/01 08:58:11;;;;;;;;;;;29.60;69.60;;;;;;3272440;28;10001521;-71
2022/11/01 09:00:16;;;;;;;;;;;29.60;68.90;;;;;;4163099;28;19929;-71
2022/11/01 09:02:22;;;;;;;;;;;29.60;67.40;;;;;;4162916;28;20725;-71
2022/11/01 09:04:29;;;;;;;;;;;29.60;66.90;;;;;;4163181;28;20630;-71
2022/11/01 09:06:35;;;;;;;;;;;29.60;67.50;;;;;;4178394;28;20292;-71
2022/11/01 09:08:43;;;;;;;;;;;29.60;68.20;;;;;;4163244;28;19979;-71
2022/11/01 09:10:59;;;;;;;;;;;29.50;68.30;;;;;;4162753;28;19929;-71
2022/11/01 09:13:04;;;;;;;;;;;29.50;68.00;;;;;;4162929;28;20040;-70
2022/11/01 09:15:13;;;;;;;;;;;29.50;67.70;;;;;;4169044;28;20399;-71
2022/11/01 09:17:25;;;;;;;;;;;29.40;67.60;;;;;;4162887;28;19960;-71
2022/11/01 09:19:29;;;;;;;;;;;29.40;66.80;;;;;;4162312;28;20025;-71
2022/11/01 09:21:36;;;;;;;;;;;29.40;67.40;;;;;;4163561;28;19968;-71
2022/11/01 09:23:42;;;;;;;;;;;29.30;67.60;;;;;;4172647;28;19967;-71
2022/11/01 09:25:46;;;;;;;;;;;29.40;67.70;;;;;;4178158;28;19936;-70
2022/11/01 09:27:54;;;;;;;;;;;29.30;68.30;;;;;;4178219;28;19974;-70
2022/11/01 09:30:00;;;;;;;;;;;29.40;67.70;;;;;;4161753;28;19929;-69
2022/11/01 09:32:05;;;;;;;;;;;29.40;67.70;;;;;;4161995;28;19955;-69
2022/11/01 09:34:12;;;;;;;;;;;29.30;68.10;;;;;;4161853;28;19929;-71
2022/11/01 09:36:20;;;;;;;;;;;29.30;68.70;;;;;;4162669;28;19948;-70
2022/11/01 09:38:25;;;;;;;;;;;29.30;68.50;;;;;;4160841;28;19929;-69
2022/11/01 09:40:34;;;;;;;;;;;29.20;68.90;;;;;;4161949;28;19929;-71
2022/11/01 09:42:42;;;;;;;;;;;29.20;68.50;;;;;;4160324;28;19925;-71
2022/11/01 09:44:47;;;;;;;;;;;29.20;68.30;;;;;;4176211;28;19936;-70
2022/11/01 09:46:53;;;;;;;;;;;29.10;68.30;;;;;;4160553;28;19925;-70
2022/11/01 09:49:05;;;;;;;;;;;29.10;68.70;;;;;;4166850;28;19929;-70
2022/11/01 09:51:14;;;;;;;;;;;29.00;69.20;;;;;;4161323;28;20530;-70
2022/11/01 09:53:20;;;;;;;;;;;29.00;69.10;;;;;;4159539;28;20529;-70
2022/11/01 09:55:37;;;;;;;;;;;28.90;69.20;;;;;;4168550;28;19936;-70
2022/11/01 09:57:54;;;;;;;;;;;28.90;69.50;;;;;;4160007;28;19933;-69
2022/11/01 10:00:12;;;;;;;;;;;28.90;69.60;;;;;;4159298;28;20281;-71
2022/11/01 10:02:25;;;;;;;;;;;28.80;69.60;;;;;;4159146;28;19953;-69
2022/11/01 10:04:33;;;;;;;;;;;28.80;70.30;;;;;;4160235;28;19929;-70
2022/11/01 10:06:39;;;;;;;;;;;28.80;71.00;;;;;;4159897;28;19931;-69
2022/11/01 10:08:54;;;;;;;;;;;28.70;71.90;;;;;;4173980;28;19959;-70
2022/11/01 10:11:03;;;;;;;;;;;28.70;72.80;;;;;;4183908;28;19925;-70
2022/11/01 10:13:19;;;;;;;;;;;28.60;74.80;;;;;;4159664;28;20782;-70
2022/11/01 10:15:36;;;;;;;;;;;28.50;76.30;;;;;;4158021;28;19991;-70
2022/11/01 10:17:48;;;;;;;;;;;28.30;78.10;;;;;;4157058;28;19929;-69
2022/11/01 10:19:56;;;;;;;;;;;28.20;78.60;;;;;;4156706;28;19952;-69
2022/11/01 10:22:23;;;;;;;;;;;28.10;79.20;;;;;;4161338;28;19929;-71
2022/11/01 10:24:39;;;;;;;;;;;28.10;79.80;;;;;;4167672;28;19936;-71
2022/11/01 10:26:45;;;;;;;;;;;28.00;80.80;;;;;;4164767;28;19938;-70
2022/11/01 10:28:56;;;;;;;;;;;27.90;81.70;;;;;;4160664;28;19943;-70
2022/11/01 10:31:02;;;;;;;;;;;27.80;82.50;;;;;;4162072;28;19929;-70
2022/11/01 10:33:21;;;;;;;;;;;27.70;82.90;;;;;;4157367;28;19964;-71
2022/11/01 10:35:39;;;;;;;;;;;27.60;83.00;;;;;;4157671;28;19932;-71
2022/11/01 10:37:54;;;;;;;;;;;27.50;83.40;;;;;;4160972;28;20375;-71
2022/11/01 10:40:25;;;;;;;;;;;27.50;84.50;;;;;;4159557;28;20035;-71
2022/11/01 10:42:29;;;;;;;;;;;27.30;84.60;;;;;;4157877;28;19972;-70
2022/11/01 10:44:34;;;;;;;;;;;27.30;84.80;;;;;;4160862;28;19928;-70
2022/11/01 10:46:39;;;;;;;;;;;27.30;84.70;;;;;;4167059;28;19929;-70
2022/11/01 10:48:45;;;;;;;;;;;27.30;84.80;;;;;;4165542;28;19967;-70
2022/11/01 10:50:50;;;;;;;;;;;27.10;84.90;;;;;;4159303;28;19936;-70
2022/11/01 10:53:04;;;;;;;;;;;27.00;85.70;;;;;;4168298;28;19960;-71
2022/11/01 10:55:14;;;;;;;;;;;27.00;86.20;;;;;;4158706;28;19983;-71
2022/11/01 10:57:23;;;;;;;;;;;27.00;86.50;;;;;;4159186;28;19925;-71
2022/11/01 10:59:31;;;;;;;;;;;27.00;86.70;;;;;;4157214;28;20020;-71
2022/11/01 11:01:41;;;;;;;;;;;26.80;86.90;;;;;;4160756;28;19929;-70
2022/11/01 11:04:03;;;;;;;;;;;26.90;87.30;;;;;;4169468;28;19932;-71
2022/11/01 11:06:10;;;;;;;;;;;26.80;87.50;;;;;;4159451;28;19932;-69
2022/11/01 11:08:15;;;;;;;;;;;26.70;88.20;;;;;;4159376;28;19929;-69
2022/11/01 11:10:27;;;;;;;;;;;26.70;88.20;;;;;;4169921;28;19932;-69
2022/11/01 11:12:41;;;;;;;;;;;26.60;88.30;;;;;;4161165;28;20372;-69
2022/11/01 11:14:46;;;;;;;;;;;26.60;88.00;;;;;;4163355;28;19979;-69
2022/11/01 11:16:54;;;;;;;;;;;26.50;88.50;;;;;;4167338;28;19924;-70
2022/11/01 11:19:14;;;;;;;;;;;26.50;88.60;;;;;;4163214;28;19976;-70
2022/11/01 11:21:19;;;;;;;;;;;26.50;88.40;;;;;;4163475;28;19929;-70
2022/11/01 11:23:33;;;;;;;;;;;26.50;88.60;;;;;;4164282;28;19960;-70
2022/11/01 11:25:41;;;;;;;;;;;26.40;88.90;;;;;;4161827;28;19956;-71
2022/11/01 11:27:47;;;;;;;;;;;26.40;88.90;;;;;;4164146;28;19929;-71
2022/11/01 11:29:59;;;;;;;;;;;26.40;89.00;;;;;;4163461;28;20486;-70
2022/11/01 11:32:12;;;;;;;;;;;26.40;89.10;;;;;;4164107;28;20027;-70
2022/11/01 11:34:23;;;;;;;;;;;26.40;88.90;;;;;;4170216;28;19929;-70
2022/11/01 11:36:31;;;;;;;;;;;26.30;89.30;;;;;;4159502;28;19933;-70
2022/11/01 11:38:46;;;;;;;;;;;26.20;89.10;;;;;;4155501;28;20032;-70
2022/11/01 11:40:53;;;;;;;;;;;26.10;89.90;;;;;;4160726;28;20497;-70
2022/11/01 11:43:17;;;;;;;;;;;26.20;90.10;;;;;;4160732;28;19936;-71
2022/11/01 11:45:26;;;;;;;;;;;26.10;90.30;;;;;;4161307;28;20348;-70
2022/11/01 11:47:37;;;;;;;;;;;26.10;90.40;;;;;;4161268;28;19929;-70
2022/11/01 11:49:44;;;;;;;;;;;26.10;90.40;;;;;;4161686;28;20506;-69
2022/11/01 11:51:51;;;;;;;;;;;26.10;90.50;;;;;;4160223;28;19975;-69
2022/11/01 11:54:08;;;;;;;;;;;26.10;90.60;;;;;;4149272;28;19988;-71
2022/11/01 11:56:14;;;;;;;;;;;26.00;90.70;;;;;;4159479;28;19964;-70
2022/11/01 11:58:28;;;;;;;;;;;26.00;91.00;;;;;;4127102;28;19926;-70
2022/11/01 12:00:34;;;;;;;;;;;26.00;91.00;;;;;;4141870;28;20132;-70
2022/11/01 12:02:39;;;;;;;;;;;25.90;91.20;;;;;;4127740;28;19940;-70
2022/11/01 12:04:56;;;;;;;;;;;25.90;91.30;;;;;;4127795;28;20073;-70
2022/11/01 12:07:05;;;;;;;;;;;25.80;91.40;;;;;;4128379;28;20021;-70
2022/11/01 12:09:29;;;;;;;;;;;25.80;91.60;;;;;;4127068;28;20492;-70
2022/11/01 12:11:38;;;;;;;;;;;25.80;91.80;;;;;;4127611;28;19952;-70
2022/11/01 12:13:59;;;;;;;;;;;25.80;92.00;;;;;;4129150;28;19930;-69
2022/11/01 12:16:08;;;;;;;;;;;25.70;92.10;;;;;;4129057;28;19996;-70
2022/11/01 12:18:17;;;;;;;;;;;25.70;92.30;;;;;;4127471;28;19926;-69
2022/11/01 12:20:34;;;;;;;;;;;25.60;92.50;;;;;;4128947;28;20337;-69
2022/11/01 12:22:39;;;;;;;;;;;25.50;92.70;;;;;;4128567;28;19961;-70
2022/11/01 12:24:44;;;;;;;;;;;25.60;93.10;;;;;;4127192;28;19929;-69
2022/11/01 12:26:51;;;;;;;;;;;25.60;93.00;;;;;;4110408;28;20071;-69
2022/11/01 12:29:07;;;;;;;;;;;25.50;93.00;;;;;;4134260;28;19975;-70
2022/11/01 12:31:17;;;;;;;;;;;25.50;92.90;;;;;;4156916;28;19929;-70
2022/11/01 12:33:30;;;;;;;;;;;25.40;93.20;;;;;;4156520;28;19929;-70
2022/11/01 12:35:40;;;;;;;;;;;25.40;93.30;;;;;;4160455;28;19931;-70
2022/11/01 12:37:57;;;;;;;;;;;25.40;93.30;;;;;;4160553;28;19940;-70
2022/11/01 12:40:06;;;;;;;;;;;25.40;93.30;;;;;;4160672;28;19987;-70
2022/11/01 12:42:25;;;;;;;;;;;25.40;93.50;;;;;;4159797;28;19936;-70
2022/11/01 12:44:38;;;;;;;;;;;25.30;93.50;;;;;;4160623;28;19925;-69
2022/11/01 12:46:51;;;;;;;;;;;25.30;93.60;;;;;;4160127;28;20463;-70